Time;durP1;ratioP1;P1;durP2;ratioP2;P2;SDS_P1;SDS_P2;PMS_P1;PMS_P2;Temp;Humidity;BMP_temperature;BMP_pressure;BME280_temperature;BME280_humidity;BME280_pressure;Samples;Min_cycle;Max_cycle;Signal;HPM_P1;HPM_P2
2022/03/10 00:00:06;;;;;;;22.67;12.67;;;3.70;99.90;;;;;;5085170;28;20412;-68
2022/03/10 00:02:32;;;;;;;22.13;13.17;;;3.70;99.90;;;;;;5073870;28;20530;-63
2022/03/10 00:04:58;;;;;;;23.53;13.10;;;3.70;99.90;;;;;;5084131;28;20416;-64
2022/03/10 00:07:23;;;;;;;25.70;12.33;;;3.70;99.90;;;;;;5081803;28;20192;-68
2022/03/10 00:09:49;;;;;;;24.57;12.20;;;3.70;99.90;;;;;;5095736;28;20202;-70
2022/03/10 00:12:14;;;;;;;18.23;11.00;;;3.70;99.90;;;;;;5083674;28;20195;-68
2022/03/10 00:14:40;;;;;;;32.10;12.90;;;3.70;99.90;;;;;;5076865;28;20193;-69
2022/03/10 00:17:06;;;;;;;23.37;11.97;;;3.60;99.90;;;;;;5069471;28;20177;-63
2022/03/10 00:19:31;;;;;;;23.87;12.83;;;3.60;99.90;;;;;;5096213;28;20194;-69
2022/03/10 00:21:58;;;;;;;27.77;13.90;;;3.60;99.90;;;;;;5093411;28;20195;-69
2022/03/10 00:24:24;;;;;;;23.90;13.07;;;3.60;99.90;;;;;;5096959;28;20173;-69
2022/03/10 00:26:50;;;;;;;19.17;13.20;;;3.60;99.90;;;;;;5076111;28;20448;-69
2022/03/10 00:29:15;;;;;;;17.73;11.80;;;3.60;99.90;;;;;;5095344;28;20238;-68
2022/03/10 00:31:41;;;;;;;25.00;13.10;;;3.60;99.90;;;;;;5087854;28;20219;-64
2022/03/10 00:34:08;;;;;;;22.43;13.00;;;3.60;99.90;;;;;;5076715;28;20617;-63
2022/03/10 00:36:33;;;;;;;22.80;12.70;;;3.60;99.90;;;;;;5069828;28;20292;-68
2022/03/10 00:38:59;;;;;;;22.27;13.97;;;3.50;99.90;;;;;;5094842;28;20974;-69
2022/03/10 00:41:25;;;;;;;23.07;12.03;;;3.60;99.90;;;;;;5085549;28;20437;-63
2022/03/10 00:43:50;;;;;;;18.40;11.30;;;3.50;99.90;;;;;;5076131;28;20252;-69
2022/03/10 00:46:16;;;;;;;19.03;12.13;;;3.60;99.90;;;;;;5084016;28;20201;-64
2022/03/10 00:48:42;;;;;;;21.73;13.20;;;3.60;99.90;;;;;;5095236;28;20164;-64
2022/03/10 00:51:07;;;;;;;18.57;11.43;;;3.60;99.90;;;;;;5092474;28;20197;-63
2022/03/10 00:53:34;;;;;;;24.97;11.90;;;3.60;99.90;;;;;;5096112;28;20580;-64
2022/03/10 00:55:59;;;;;;;24.33;11.80;;;3.70;99.90;;;;;;5094681;28;20411;-69
2022/03/10 00:58:25;;;;;;;26.57;13.43;;;3.60;99.90;;;;;;5096021;28;20456;-69
2022/03/10 01:00:51;;;;;;;19.67;13.30;;;3.60;99.90;;;;;;5085237;28;20261;-63
2022/03/10 01:03:17;;;;;;;23.73;12.10;;;3.60;99.90;;;;;;5092960;28;20411;-69
2022/03/10 01:05:43;;;;;;;21.50;11.93;;;3.60;99.90;;;;;;5094497;28;20217;-63
2022/03/10 01:08:09;;;;;;;21.53;12.80;;;3.60;99.90;;;;;;5096325;28;20430;-63
2022/03/10 01:10:35;;;;;;;20.70;12.87;;;3.60;99.90;;;;;;5088363;28;20414;-64
2022/03/10 01:13:01;;;;;;;21.30;12.17;;;3.60;99.90;;;;;;5074710;28;20208;-63
2022/03/10 01:15:28;;;;;;;17.40;11.77;;;3.60;99.90;;;;;;5080150;28;20258;-69
2022/03/10 01:17:54;;;;;;;23.13;12.53;;;3.50;99.90;;;;;;5095908;28;20462;-68
2022/03/10 01:20:22;;;;;;;21.93;12.67;;;3.50;99.90;;;;;;5091806;28;20549;-63
2022/03/10 01:22:49;;;;;;;25.87;12.93;;;3.40;99.90;;;;;;5074665;28;20519;-68
2022/03/10 01:25:15;;;;;;;19.50;12.80;;;3.40;99.90;;;;;;5076826;28;20400;-69
2022/03/10 01:27:41;;;;;;;24.67;12.97;;;3.50;99.90;;;;;;5095692;28;20481;-68
2022/03/10 01:30:08;;;;;;;21.33;12.40;;;3.50;99.90;;;;;;5094648;28;20761;-70
2022/03/10 01:32:35;;;;;;;26.23;12.90;;;3.50;99.90;;;;;;5075228;28;20206;-63
2022/03/10 01:35:05;;;;;;;19.60;12.60;;;3.50;99.90;;;;;;5076386;28;20396;-69
2022/03/10 01:37:32;;;;;;;25.93;12.20;;;3.50;99.90;;;;;;5075297;28;20409;-68
2022/03/10 01:39:58;;;;;;;20.13;11.40;;;3.50;99.90;;;;;;5075203;28;20420;-68
2022/03/10 01:42:24;;;;;;;21.03;12.30;;;3.40;99.90;;;;;;5094231;28;20525;-69
2022/03/10 01:44:53;;;;;;;18.77;11.73;;;3.40;99.90;;;;;;5095516;28;20166;-63
2022/03/10 01:47:19;;;;;;;23.33;12.57;;;3.40;99.90;;;;;;5094145;28;20197;-64
2022/03/10 01:49:44;;;;;;;23.40;11.70;;;3.30;99.90;;;;;;5094063;28;20402;-69
2022/03/10 01:52:10;;;;;;;23.13;13.43;;;3.30;99.90;;;;;;5093535;28;20218;-69
2022/03/10 01:54:36;;;;;;;17.60;11.30;;;3.30;99.90;;;;;;5080636;28;20183;-69
2022/03/10 01:57:03;;;;;;;21.97;12.27;;;3.30;99.90;;;;;;5086895;28;20181;-69
2022/03/10 01:59:29;;;;;;;21.83;11.90;;;3.30;99.90;;;;;;5093479;28;20404;-63
2022/03/10 02:01:55;;;;;;;26.43;13.97;;;3.30;99.90;;;;;;5061381;28;20440;-70
2022/03/10 02:04:22;;;;;;;18.57;11.13;;;3.20;99.90;;;;;;5074855;28;20422;-66
2022/03/10 02:06:48;;;;;;;19.70;11.40;;;3.30;99.90;;;;;;5075983;28;20845;-69
2022/03/10 02:11:58;;;;;;;23.87;12.10;;;3.20;99.90;;;;;;5088749;28;20443;-63
2022/03/10 02:17:20;;;;;;;25.97;10.93;;;3.10;99.90;;;;;;5078298;28;20505;-64
2022/03/10 02:19:54;;;;;;;17.10;9.97;;;3.10;99.90;;;;;;5082666;28;20423;-69
2022/03/10 02:22:20;;;;;;;19.37;11.43;;;3.10;99.90;;;;;;5094370;28;20444;-63
2022/03/10 02:24:47;;;;;;;21.80;13.73;;;3.00;99.90;;;;;;5085640;28;20428;-63
2022/03/10 02:27:18;;;;;;;22.63;11.77;;;3.00;99.90;;;;;;5082846;28;20969;-64
2022/03/10 02:29:44;;;;;;;26.00;14.10;;;3.00;99.90;;;;;;5055385;28;20976;-69
2022/03/10 02:32:13;;;;;;;19.43;12.00;;;2.90;99.90;;;;;;5086314;28;20518;-66
2022/03/10 02:34:40;;;;;;;28.13;12.37;;;2.90;99.90;;;;;;5094543;28;20798;-68
2022/03/10 02:37:06;;;;;;;21.57;14.03;;;3.00;99.90;;;;;;5075088;28;20511;-69
2022/03/10 02:39:32;;;;;;;27.30;14.10;;;2.90;99.90;;;;;;5073202;28;20392;-68
2022/03/10 02:41:58;;;;;;;18.10;12.30;;;2.90;99.90;;;;;;5089698;28;20444;-69
2022/03/10 02:44:24;;;;;;;18.60;12.97;;;2.90;99.90;;;;;;5094196;28;20422;-69
2022/03/10 02:46:51;;;;;;;24.10;11.27;;;2.90;99.90;;;;;;5079541;28;20475;-62
2022/03/10 02:49:17;;;;;;;24.70;13.23;;;2.90;99.90;;;;;;5073062;28;20166;-63
2022/03/10 02:51:43;;;;;;;23.60;11.83;;;2.90;99.90;;;;;;5056944;28;20445;-63
2022/03/10 02:54:09;;;;;;;22.77;12.40;;;2.90;99.90;;;;;;5072869;28;20404;-68
2022/03/10 02:56:34;;;;;;;18.67;12.90;;;2.90;99.90;;;;;;5074898;28;20420;-69
2022/03/10 02:59:00;;;;;;;20.13;11.83;;;2.90;99.90;;;;;;5072929;28;20547;-69
2022/03/10 03:01:26;;;;;;;27.30;13.33;;;2.80;99.90;;;;;;5056740;28;20228;-63
2022/03/10 03:03:51;;;;;;;20.23;12.17;;;2.80;99.90;;;;;;5073524;28;20174;-68
2022/03/10 03:06:19;;;;;;;26.87;13.40;;;2.80;99.90;;;;;;5074518;28;20265;-63
2022/03/10 03:08:45;;;;;;;23.30;12.43;;;2.70;99.90;;;;;;5072873;28;20245;-69
2022/03/10 03:11:10;;;;;;;20.93;12.07;;;2.70;99.90;;;;;;5085419;28;20901;-69
2022/03/10 03:13:36;;;;;;;23.37;12.80;;;2.60;99.90;;;;;;5074604;28;20169;-69
2022/03/10 03:16:02;;;;;;;25.77;11.07;;;2.60;99.90;;;;;;5064973;28;20178;-63
2022/03/10 03:18:27;;;;;;;18.90;11.10;;;2.50;99.90;;;;;;5055304;28;20174;-68
2022/03/10 03:20:53;;;;;;;18.33;11.90;;;2.40;99.90;;;;;;5080919;28;20219;-64
2022/03/10 03:23:18;;;;;;;24.07;11.63;;;2.30;99.90;;;;;;5093244;28;20706;-64
2022/03/10 03:25:44;;;;;;;22.07;11.23;;;2.20;99.90;;;;;;5086442;28;20189;-69
2022/03/10 03:28:10;;;;;;;19.40;10.90;;;2.10;99.90;;;;;;5073298;28;20162;-69
2022/03/10 03:30:35;;;;;;;14.70;9.97;;;2.00;99.90;;;;;;5075509;28;20165;-64
2022/03/10 03:33:01;;;;;;;21.97;10.57;;;2.00;99.90;;;;;;5092882;28;20573;-63
2022/03/10 03:35:27;;;;;;;17.00;10.53;;;1.90;99.90;;;;;;5091209;28;20717;-68
2022/03/10 03:37:52;;;;;;;17.80;10.90;;;1.80;99.90;;;;;;5093323;28;20172;-69
2022/03/10 03:40:18;;;;;;;21.60;11.70;;;1.80;99.90;;;;;;5088985;28;20635;-69
2022/03/10 03:42:44;;;;;;;41.70;13.47;;;1.70;99.90;;;;;;5073121;28;20273;-63
2022/03/10 03:45:10;;;;;;;24.87;13.20;;;1.70;99.90;;;;;;5074054;28;20216;-63
2022/03/10 03:47:36;;;;;;;18.57;11.50;;;1.70;99.90;;;;;;5093139;28;20193;-65
2022/03/10 03:50:02;;;;;;;25.83;12.00;;;1.70;99.90;;;;;;5089686;28;20927;-69
2022/03/10 03:52:28;;;;;;;27.23;12.27;;;1.70;99.90;;;;;;5073025;28;20566;-63
2022/03/10 03:54:53;;;;;;;28.27;12.40;;;1.70;99.90;;;;;;5083132;28;20502;-66
2022/03/10 03:57:19;;;;;;;27.83;12.07;;;1.70;99.90;;;;;;5093171;28;20649;-63
2022/03/10 03:59:45;;;;;;;21.33;12.27;;;1.80;99.90;;;;;;5083570;28;20610;-63
2022/03/10 04:02:10;;;;;;;27.60;14.57;;;1.80;99.90;;;;;;5076818;28;20567;-66
2022/03/10 04:04:36;;;;;;;23.07;11.03;;;1.80;99.90;;;;;;5073848;28;20765;-68
2022/03/10 04:07:02;;;;;;;22.47;11.47;;;1.80;99.90;;;;;;5058723;28;20181;-69
2022/03/10 04:09:27;;;;;;;24.50;12.93;;;1.80;99.90;;;;;;5091352;28;20243;-69
2022/03/10 04:11:53;;;;;;;21.87;13.40;;;1.80;99.90;;;;;;5064929;28;20241;-68
2022/03/10 04:14:19;;;;;;;24.27;14.20;;;1.90;99.90;;;;;;5072614;28;20170;-63
2022/03/10 04:16:45;;;;;;;21.00;11.80;;;1.90;99.90;;;;;;5080741;28;20197;-69
2022/03/10 04:19:11;;;;;;;31.00;14.13;;;1.90;99.90;;;;;;5073639;28;20438;-70
2022/03/10 04:21:36;;;;;;;30.50;12.37;;;2.00;99.90;;;;;;5091167;28;20212;-68
2022/03/10 04:24:02;;;;;;;22.97;14.10;;;2.00;99.90;;;;;;5074205;28;20170;-69
2022/03/10 04:26:29;;;;;;;22.17;14.13;;;2.10;99.90;;;;;;5086952;28;20243;-65
2022/03/10 04:28:54;;;;;;;28.10;13.93;;;2.10;99.90;;;;;;5090994;28;20945;-64
2022/03/10 04:31:20;;;;;;;27.23;13.60;;;2.20;99.90;;;;;;5079579;28;20479;-69
2022/03/10 04:33:46;;;;;;;16.53;10.37;;;2.20;99.90;;;;;;5072675;28;20556;-69
2022/03/10 04:36:12;;;;;;;22.97;11.60;;;2.20;99.90;;;;;;5073804;28;20662;-66
2022/03/10 04:38:37;;;;;;;30.00;13.70;;;2.20;99.90;;;;;;5071581;28;20170;-63
2022/03/10 04:41:03;;;;;;;18.40;11.47;;;2.20;99.90;;;;;;5065160;28;20281;-63
2022/03/10 04:43:29;;;;;;;30.80;13.30;;;2.20;99.90;;;;;;5092775;28;20626;-63
2022/03/10 04:45:55;;;;;;;27.30;14.00;;;2.30;99.90;;;;;;5082747;28;20244;-64
2022/03/10 04:48:20;;;;;;;26.17;11.57;;;2.20;99.90;;;;;;5073840;28;20185;-63
2022/03/10 04:50:46;;;;;;;27.67;15.67;;;2.30;99.90;;;;;;5076268;28;20257;-69
2022/03/10 04:53:12;;;;;;;29.90;15.23;;;2.30;99.90;;;;;;5058203;28;20571;-68
2022/03/10 04:55:38;;;;;;;19.27;11.90;;;2.30;99.90;;;;;;5085328;28;20445;-69
2022/03/10 04:58:04;;;;;;;22.97;14.93;;;2.40;99.90;;;;;;5096520;28;20176;-69
2022/03/10 05:00:30;;;;;;;24.40;13.80;;;2.40;99.90;;;;;;5091183;28;20692;-70
2022/03/10 05:02:55;;;;;;;29.33;13.23;;;2.40;99.90;;;;;;5087157;28;20434;-63
2022/03/10 05:05:21;;;;;;;21.17;12.23;;;2.50;99.90;;;;;;5076725;28;20176;-68
2022/03/10 05:07:46;;;;;;;18.93;12.53;;;2.50;99.90;;;;;;5096162;28;20686;-64
2022/03/10 05:10:14;;;;;;;32.17;12.90;;;2.50;99.90;;;;;;5094878;28;20169;-63
2022/03/10 05:12:48;;;;;;;20.60;12.87;;;2.50;99.90;;;;;;5075502;28;20279;-71
2022/03/10 05:15:18;;;;;;;24.70;13.50;;;2.50;99.90;;;;;;5075605;28;20874;-65
2022/03/10 05:17:44;;;;;;;27.80;14.70;;;2.50;99.90;;;;;;5075600;28;20416;-69
2022/03/10 05:20:10;;;;;;;19.70;11.57;;;2.50;99.90;;;;;;5082423;28;20773;-69
2022/03/10 05:22:50;;;;;;;30.40;16.03;;;2.50;99.90;;;;;;5093651;28;20260;-64
2022/03/10 05:25:18;;;;;;;26.80;12.60;;;2.50;99.90;;;;;;5095151;28;20435;-68
2022/03/10 05:27:44;;;;;;;21.07;13.50;;;2.50;99.90;;;;;;5078018;28;20471;-68
2022/03/10 05:30:10;;;;;;;31.30;14.30;;;2.50;99.90;;;;;;5074570;28;20399;-68
2022/03/10 05:32:36;;;;;;;19.10;11.67;;;2.50;99.90;;;;;;5090898;28;20481;-62
2022/03/10 05:35:04;;;;;;;31.93;12.40;;;2.50;99.90;;;;;;5093874;28;20880;-62
2022/03/10 05:37:30;;;;;;;29.13;13.60;;;2.50;99.90;;;;;;5075435;28;20412;-68
2022/03/10 05:39:56;;;;;;;20.03;13.20;;;2.60;99.90;;;;;;5074417;28;20403;-68
2022/03/10 05:42:22;;;;;;;27.63;15.30;;;2.50;99.90;;;;;;5094554;28;20522;-69
2022/03/10 05:44:48;;;;;;;25.20;13.30;;;2.50;99.90;;;;;;5094970;28;20196;-69
2022/03/10 05:47:14;;;;;;;32.37;15.77;;;2.50;99.90;;;;;;5076421;28;20487;-63
2022/03/10 05:49:40;;;;;;;26.10;14.13;;;2.50;99.90;;;;;;5074201;28;20524;-68
2022/03/10 05:52:05;;;;;;;30.23;16.10;;;2.50;99.90;;;;;;5076092;28;20682;-69
2022/03/10 05:54:31;;;;;;;29.50;17.43;;;2.50;99.90;;;;;;5075042;28;20405;-63
2022/03/10 05:56:57;;;;;;;21.33;12.53;;;2.60;99.90;;;;;;5089635;28;20177;-69
2022/03/10 05:59:23;;;;;;;24.23;12.10;;;2.60;99.90;;;;;;5093900;28;20404;-63
2022/03/10 06:01:49;;;;;;;20.73;13.63;;;2.60;99.90;;;;;;5081780;28;20197;-69
2022/03/10 06:04:15;;;;;;;34.03;17.00;;;2.50;99.90;;;;;;5073822;28;20307;-64
2022/03/10 06:06:43;;;;;;;26.60;14.10;;;2.50;99.90;;;;;;5056837;28;20651;-69
2022/03/10 06:09:09;;;;;;;24.10;12.83;;;2.50;99.90;;;;;;5073817;28;20397;-64
2022/03/10 06:11:35;;;;;;;23.87;14.10;;;2.50;99.90;;;;;;5074535;28;20416;-64
2022/03/10 06:14:01;;;;;;;19.60;12.63;;;2.50;99.90;;;;;;5074678;28;20404;-63
2022/03/10 06:16:26;;;;;;;21.70;14.40;;;2.50;99.90;;;;;;5074622;28;20519;-69
2022/03/10 06:18:52;;;;;;;25.10;15.10;;;2.50;99.90;;;;;;5073717;28;20174;-69
2022/03/10 06:21:18;;;;;;;24.57;16.03;;;2.60;99.90;;;;;;5074392;28;20205;-69
2022/03/10 06:23:44;;;;;;;31.30;14.60;;;2.60;99.90;;;;;;5073396;28;20405;-68
2022/03/10 06:26:09;;;;;;;21.40;13.87;;;2.60;99.90;;;;;;5074463;28;20225;-63
2022/03/10 06:28:35;;;;;;;20.67;13.10;;;2.60;99.90;;;;;;5073347;28;20216;-70
2022/03/10 06:31:00;;;;;;;19.80;13.03;;;2.60;99.90;;;;;;5074274;28;20201;-63
2022/03/10 06:33:26;;;;;;;23.67;12.73;;;2.60;99.90;;;;;;5074304;28;20181;-64
2022/03/10 06:35:52;;;;;;;27.43;15.63;;;2.60;99.90;;;;;;5074206;28;20512;-69
2022/03/10 06:38:18;;;;;;;22.40;13.43;;;2.60;99.90;;;;;;5074206;28;20400;-64
2022/03/10 06:40:43;;;;;;;26.03;14.63;;;2.70;99.90;;;;;;5073029;28;20166;-63
2022/03/10 06:43:09;;;;;;;27.63;14.33;;;2.70;99.90;;;;;;5073436;28;20174;-63
2022/03/10 06:45:35;;;;;;;23.47;13.07;;;2.70;99.90;;;;;;5073914;28;20731;-69
2022/03/10 06:48:00;;;;;;;21.33;13.63;;;2.70;99.90;;;;;;5073972;28;20206;-69
2022/03/10 06:50:27;;;;;;;22.73;13.00;;;2.80;99.90;;;;;;5073037;28;20201;-63
2022/03/10 06:52:56;;;;;;;17.33;12.57;;;2.80;99.90;;;;;;5073757;28;20574;-63
2022/03/10 06:55:25;;;;;;;22.10;12.53;;;2.90;99.90;;;;;;5073883;28;20397;-69
2022/03/10 06:57:52;;;;;;;25.93;12.67;;;3.00;99.90;;;;;;5055729;28;20821;-63
2022/03/10 07:00:18;;;;;;;24.90;14.90;;;3.00;99.90;;;;;;5072336;28;20419;-69
2022/03/10 07:02:44;;;;;;;20.30;13.30;;;3.00;99.90;;;;;;5073284;28;20427;-70
2022/03/10 07:05:09;;;;;;;23.40;14.10;;;3.10;99.90;;;;;;5073674;28;20413;-63
2022/03/10 07:07:35;;;;;;;25.37;13.30;;;3.10;99.90;;;;;;5073452;28;20197;-63
2022/03/10 07:10:01;;;;;;;20.30;11.63;;;3.20;99.90;;;;;;5071970;28;20650;-70
2022/03/10 07:12:27;;;;;;;23.70;13.60;;;3.20;99.90;;;;;;5073480;28;20187;-63
2022/03/10 07:14:53;;;;;;;24.43;13.00;;;3.30;99.90;;;;;;5073564;28;20245;-64
2022/03/10 07:17:19;;;;;;;20.27;12.17;;;3.30;99.90;;;;;;5073468;28;20495;-63
2022/03/10 07:19:45;;;;;;;25.10;13.07;;;3.30;99.90;;;;;;5071588;28;20536;-70
2022/03/10 07:22:16;;;;;;;23.03;17.23;;;3.40;99.90;;;;;;5073331;28;20609;-64
2022/03/10 07:24:41;;;;;;;25.30;12.90;;;3.40;99.90;;;;;;5073428;28;20443;-63
2022/03/10 07:27:07;;;;;;;17.03;11.70;;;3.50;99.90;;;;;;5073148;28;20479;-63
2022/03/10 07:29:33;;;;;;;22.90;13.43;;;3.50;99.90;;;;;;5072437;28;20162;-69
2022/03/10 07:31:58;;;;;;;21.30;12.30;;;3.50;99.90;;;;;;5073101;28;20190;-69
2022/03/10 07:34:24;;;;;;;17.77;11.90;;;3.50;99.90;;;;;;5073218;28;20197;-63
2022/03/10 07:36:50;;;;;;;24.17;12.43;;;3.60;99.90;;;;;;5072830;28;20170;-66
2022/03/10 07:39:16;;;;;;;30.60;13.20;;;3.60;99.90;;;;;;5071837;28;20217;-68
2022/03/10 07:41:41;;;;;;;22.43;12.60;;;3.70;99.90;;;;;;5072943;28;20420;-69
2022/03/10 07:44:07;;;;;;;29.53;13.43;;;3.70;99.90;;;;;;5073061;28;20178;-69
2022/03/10 07:46:33;;;;;;;26.20;14.17;;;3.70;99.90;;;;;;5055152;28;20609;-63
2022/03/10 07:48:59;;;;;;;23.57;13.17;;;3.70;99.90;;;;;;5072206;28;20177;-63
2022/03/10 07:51:24;;;;;;;22.53;12.53;;;3.80;99.90;;;;;;5072939;28;20444;-70
2022/03/10 07:53:50;;;;;;;22.27;13.27;;;3.90;99.90;;;;;;5072842;28;20173;-63
2022/03/10 07:56:16;;;;;;;23.00;12.43;;;4.00;99.90;;;;;;5072875;28;20170;-64
2022/03/10 07:58:41;;;;;;;21.47;13.57;;;4.10;99.90;;;;;;5071261;28;20232;-63
2022/03/10 08:01:07;;;;;;;21.97;13.30;;;4.20;99.90;;;;;;5072860;28;20220;-63
2022/03/10 08:03:33;;;;;;;21.60;12.23;;;4.30;99.90;;;;;;5072938;28;20175;-68
2022/03/10 08:05:58;;;;;;;37.27;16.63;;;4.40;99.90;;;;;;5072725;28;20628;-62
2022/03/10 08:08:24;;;;;;;23.97;12.57;;;4.50;99.90;;;;;;5072625;28;20167;-69
2022/03/10 08:10:49;;;;;;;24.00;12.60;;;4.50;99.90;;;;;;5072175;28;20174;-69
2022/03/10 08:13:15;;;;;;;20.80;12.80;;;4.60;99.90;;;;;;5072763;28;20646;-69
2022/03/10 08:15:43;;;;;;;25.43;14.13;;;4.80;99.90;;;;;;5072784;28;20254;-69
2022/03/10 08:18:09;;;;;;;27.23;12.93;;;4.80;99.90;;;;;;5071822;28;20394;-70
2022/03/10 08:20:34;;;;;;;22.10;12.60;;;4.90;99.90;;;;;;5071716;28;20460;-63
2022/03/10 08:23:00;;;;;;;24.80;13.33;;;4.90;99.90;;;;;;5075644;28;20434;-69
2022/03/10 08:25:26;;;;;;;31.70;14.23;;;5.00;99.90;;;;;;5076894;28;20180;-62
2022/03/10 08:27:51;;;;;;;23.80;13.87;;;5.10;99.90;;;;;;5088255;28;20201;-63
2022/03/10 08:30:18;;;;;;;18.50;11.73;;;5.20;99.90;;;;;;5095915;28;20226;-64
2022/03/10 08:32:44;;;;;;;36.87;13.17;;;5.30;99.90;;;;;;5094970;28;20181;-63
2022/03/10 08:35:10;;;;;;;21.60;13.90;;;5.40;99.90;;;;;;5096606;28;20399;-67
2022/03/10 08:37:35;;;;;;;21.50;13.30;;;5.50;99.90;;;;;;5092259;28;20919;-68
2022/03/10 08:40:01;;;;;;;25.37;12.27;;;5.60;99.90;;;;;;5096031;28;20173;-63
2022/03/10 08:42:26;;;;;;;22.20;12.43;;;5.70;99.90;;;;;;5095706;28;20243;-67
2022/03/10 08:44:52;;;;;;;24.70;12.50;;;5.80;99.90;;;;;;5096689;28;20169;-64
2022/03/10 08:47:18;;;;;;;22.93;12.47;;;5.90;99.90;;;;;;5069368;28;20197;-69
2022/03/10 08:49:44;;;;;;;24.30;12.73;;;6.10;99.90;;;;;;5075297;28;20781;-70
2022/03/10 08:52:09;;;;;;;23.60;13.07;;;6.20;99.90;;;;;;5082691;28;20211;-63
2022/03/10 08:54:35;;;;;;;24.53;11.43;;;6.30;99.90;;;;;;5095643;28;20169;-68
2022/03/10 08:57:01;;;;;;;20.57;13.03;;;6.50;99.90;;;;;;5090441;28;20178;-63
2022/03/10 08:59:26;;;;;;;19.07;12.50;;;6.70;99.90;;;;;;5075606;28;20172;-63
2022/03/10 09:01:53;;;;;;;16.53;10.87;;;6.80;99.90;;;;;;5094379;28;20304;-64
2022/03/10 09:04:20;;;;;;;24.17;12.10;;;6.90;99.90;;;;;;5096115;28;20439;-70
2022/03/10 09:06:46;;;;;;;20.63;13.17;;;7.00;99.90;;;;;;5096081;28;20189;-70
2022/03/10 09:09:11;;;;;;;18.93;11.73;;;7.10;99.90;;;;;;5094540;28;20425;-64
2022/03/10 09:11:38;;;;;;;18.57;11.50;;;7.30;99.90;;;;;;5095954;28;20186;-64
2022/03/10 09:14:04;;;;;;;17.47;12.40;;;7.40;99.90;;;;;;5077275;28;20305;-63
2022/03/10 09:16:30;;;;;;;17.83;12.60;;;7.50;99.90;;;;;;5075637;28;20765;-64
2022/03/10 09:18:56;;;;;;;25.40;13.93;;;7.60;99.90;;;;;;5089881;28;20450;-63
2022/03/10 09:21:21;;;;;;;20.63;11.80;;;7.80;99.90;;;;;;5095604;28;20185;-65
2022/03/10 09:23:47;;;;;;;20.93;12.60;;;8.00;99.90;;;;;;5094280;28;20849;-70
2022/03/10 09:26:12;;;;;;;20.90;12.17;;;8.30;99.90;;;;;;5095353;28;20593;-73
2022/03/10 09:28:38;;;;;;;21.23;14.13;;;8.70;99.90;;;;;;5094639;28;20182;-67
2022/03/10 09:31:04;;;;;;;18.57;13.27;;;9.00;99.90;;;;;;5095517;28;20273;-66
2022/03/10 09:33:29;;;;;;;18.37;12.17;;;9.30;99.90;;;;;;5094947;28;20669;-73
2022/03/10 09:35:56;;;;;;;21.93;13.00;;;9.40;99.90;;;;;;5095703;28;20170;-70
2022/03/10 09:38:22;;;;;;;20.50;10.30;;;9.50;99.90;;;;;;5095414;28;20163;-70
2022/03/10 09:40:52;;;;;;;19.60;12.00;;;9.70;99.90;;;;;;5093991;28;20867;-68
2022/03/10 09:43:22;;;;;;;21.00;14.30;;;9.90;99.90;;;;;;5095391;28;20399;-73
2022/03/10 09:45:50;;;;;;;23.50;12.90;;;10.40;99.90;;;;;;5095464;28;20931;-66
2022/03/10 09:48:16;;;;;;;17.40;11.97;;;10.70;99.90;;;;;;5095447;28;20482;-66
2022/03/10 09:50:42;;;;;;;20.33;12.90;;;11.00;99.90;;;;;;5094301;28;20403;-73
2022/03/10 09:53:08;;;;;;;18.57;11.60;;;11.30;99.90;;;;;;5095322;28;20491;-72
2022/03/10 09:55:34;;;;;;;22.90;12.60;;;11.60;99.90;;;;;;5095333;28;20306;-67
2022/03/10 09:58:01;;;;;;;18.57;11.30;;;11.50;99.90;;;;;;5094894;28;20484;-67
2022/03/10 10:00:28;;;;;;;15.87;11.03;;;11.40;99.90;;;;;;5093973;28;20634;-66
2022/03/10 10:02:55;;;;;;;22.90;13.00;;;11.60;99.90;;;;;;5095020;28;20465;-73
2022/03/10 10:05:28;;;;;;;18.30;10.43;;;11.60;99.90;;;;;;5094609;28;20473;-67
2022/03/10 10:08:09;;;;;;;19.27;12.20;;;11.90;99.90;;;;;;5095099;28;20815;-73
2022/03/10 10:10:41;;;;;;;19.73;11.60;;;11.70;99.90;;;;;;5084646;28;20859;-66
2022/03/10 10:13:06;;;;;;;19.50;12.07;;;11.40;99.90;;;;;;5074573;28;20423;-67
2022/03/10 10:15:36;;;;;;;24.10;12.50;;;11.40;99.90;;;;;;5082672;28;20419;-67
2022/03/10 10:18:02;;;;;;;20.30;11.50;;;11.50;99.90;;;;;;5075804;28;20180;-72
2022/03/10 10:20:33;;;;;;;22.97;13.93;;;11.90;99.90;;;;;;5092162;28;20781;-74
2022/03/10 10:23:15;;;;;;;20.50;11.20;;;12.30;99.90;;;;;;5087576;28;20830;-67
2022/03/10 10:25:55;;;;;;;17.70;11.57;;;12.90;99.90;;;;;;5094531;28;20965;-73
2022/03/10 10:28:28;;;;;;;18.70;11.43;;;13.40;99.90;;;;;;5094204;28;20801;-67
2022/03/10 10:31:00;;;;;;;21.90;11.90;;;13.70;99.90;;;;;;5094464;28;20384;-67
2022/03/10 10:33:27;;;;;;;19.40;11.90;;;14.00;99.90;;;;;;5082431;28;20405;-67
2022/03/10 10:36:13;;;;;;;18.30;12.27;;;14.40;99.90;;;;;;5074033;28;20381;-73
2022/03/10 10:38:39;;;;;;;21.23;13.00;;;14.70;99.90;;;;;;5086153;28;20454;-74
2022/03/10 10:41:23;;;;;;;21.17;12.83;;;14.90;99.90;;;;;;5094656;28;20386;-74
2022/03/10 10:43:52;;;;;;;18.67;12.67;;;15.30;99.90;;;;;;5092916;28;20422;-67
2022/03/10 10:46:27;;;;;;;19.93;12.27;;;15.50;99.90;;;;;;5093625;28;20443;-68
2022/03/10 10:48:53;;;;;;;21.03;11.57;;;15.50;99.90;;;;;;5078666;28;20451;-74
2022/03/10 10:51:46;;;;;;;17.27;11.50;;;15.50;99.90;;;;;;5074006;28;20828;-75
2022/03/10 10:54:20;;;;;;;15.20;11.23;;;15.30;99.90;;;;;;5085728;28;20217;-66
2022/03/10 10:56:54;;;;;;;15.77;11.30;;;15.10;99.90;;;;;;5094489;28;20920;-74
2022/03/10 10:59:38;;;;;;;23.67;12.57;;;15.20;99.90;;;;;;5076158;28;20420;-67
2022/03/10 11:02:05;;;;;;;18.63;11.23;;;15.40;99.90;;;;;;5074571;28;20424;-66
2022/03/10 11:04:32;;;;;;;20.23;11.10;;;15.20;99.90;;;;;;5075867;28;20438;-74
2022/03/10 11:06:57;;;;;;;18.50;11.23;;;14.80;99.90;;;;;;5094087;28;20500;-69
2022/03/10 11:09:24;;;;;;;15.63;11.70;;;14.40;99.90;;;;;;5092732;28;20415;-74
2022/03/10 11:11:51;;;;;;;21.07;13.00;;;14.10;99.90;;;;;;5094194;28;20867;-66
2022/03/10 11:14:18;;;;;;;20.37;11.27;;;13.80;99.90;;;;;;5073635;28;20509;-74
2022/03/10 11:16:45;;;;;;;16.17;11.17;;;13.80;99.90;;;;;;5093519;28;20899;-68
2022/03/10 11:19:13;;;;;;;20.07;12.20;;;13.90;99.90;;;;;;5090193;28;20450;-75
2022/03/10 11:21:55;;;;;;;16.50;11.80;;;13.70;99.90;;;;;;5093968;28;20875;-67
2022/03/10 11:24:33;;;;;;;17.83;10.90;;;13.50;99.90;;;;;;5073737;28;20387;-67
2022/03/10 11:27:14;;;;;;;17.27;11.40;;;13.20;99.90;;;;;;5074692;28;20834;-73
2022/03/10 11:29:44;;;;;;;18.77;11.43;;;12.90;99.90;;;;;;5092864;28;20731;-74
2022/03/10 11:32:11;;;;;;;18.30;10.10;;;12.70;99.90;;;;;;5090678;28;20418;-75
2022/03/10 11:34:55;;;;;;;18.00;11.00;;;12.40;99.90;;;;;;5073595;28;20429;-74
2022/03/10 11:37:40;;;;;;;20.07;11.63;;;12.10;99.90;;;;;;5055677;28;20807;-66
2022/03/10 11:40:08;;;;;;;18.90;11.20;;;12.10;99.90;;;;;;5072662;28;20408;-74
2022/03/10 11:42:35;;;;;;;19.07;11.87;;;12.00;99.90;;;;;;5073502;28;20443;-67
2022/03/10 11:45:10;;;;;;;21.73;11.73;;;12.20;99.90;;;;;;5073477;28;20429;-74
2022/03/10 11:47:36;;;;;;;17.40;10.30;;;12.30;99.90;;;;;;5073333;28;20823;-67
2022/03/10 11:50:22;;;;;;;18.67;11.67;;;12.50;99.90;;;;;;5072158;28;20387;-75
2022/03/10 11:53:04;;;;;;;12.53;9.13;;;12.80;99.90;;;;;;5055161;28;20452;-67
2022/03/10 11:55:48;;;;;;;15.73;11.27;;;12.90;99.90;;;;;;5073274;28;20853;-74
2022/03/10 11:58:14;;;;;;;12.60;10.73;;;13.00;99.90;;;;;;5073089;28;20383;-74
2022/03/10 12:00:43;;;;;;;18.70;11.40;;;13.00;99.90;;;;;;5054397;28;20779;-67
2022/03/10 12:03:09;;;;;;;17.87;12.07;;;13.00;99.90;;;;;;5073276;28;20941;-66
2022/03/10 12:06:01;;;;;;;13.80;11.07;;;12.90;99.90;;;;;;5073216;28;20411;-74
2022/03/10 12:08:36;;;;;;;16.70;11.43;;;13.10;99.90;;;;;;5072742;28;20923;-74
2022/03/10 12:11:15;;;;;;;16.40;11.33;;;13.20;99.90;;;;;;5055192;28;20525;-66
2022/03/10 12:13:46;;;;;;;19.40;11.17;;;13.30;99.90;;;;;;5073206;28;20727;-74
2022/03/10 12:16:34;;;;;;;17.20;11.13;;;13.60;99.90;;;;;;5073102;28;20385;-66
2022/03/10 12:19:00;;;;;;;21.13;11.77;;;14.00;99.90;;;;;;5053991;28;20430;-74
2022/03/10 12:21:28;;;;;;;15.17;11.23;;;14.50;99.90;;;;;;5073051;28;20416;-75
2022/03/10 12:24:02;;;;;;;15.57;11.97;;;14.90;99.90;;;;;;5072713;28;20167;-68
2022/03/10 12:26:28;;;;;;;20.90;12.20;;;15.20;99.90;;;;;;5055088;28;20445;-75
2022/03/10 12:28:56;;;;;;;18.03;12.27;;;15.40;99.90;;;;;;5072153;28;20848;-75
2022/03/10 12:31:24;;;;;;;19.33;12.27;;;15.60;99.90;;;;;;5073111;28;20186;-67
2022/03/10 12:33:53;;;;;;;17.83;12.90;;;16.00;99.90;;;;;;5073077;28;20835;-75
2022/03/10 12:36:27;;;;;;;19.80;12.20;;;16.30;99.90;;;;;;5072939;28;20411;-67
2022/03/10 12:39:07;;;;;;;16.93;10.50;;;16.70;99.90;;;;;;5072082;28;20421;-67
2022/03/10 12:41:39;;;;;;;18.20;11.83;;;16.90;99.90;;;;;;5054742;28;20450;-67